Time;durP1;ratioP1;P1;durP2;ratioP2;P2;SDS_P1;SDS_P2;PMS_P1;PMS_P2;Temp;Humidity;BMP_temperature;BMP_pressure;BME280_temperature;BME280_humidity;BME280_pressure;Samples;Min_cycle;Max_cycle;Signal;HPM_P1;HPM_P2
2021/05/24 00:00:14;;;;;;;5.43;1.70;;;;;;;7.16;84.46;99826.81;4883975;29;20088;-83
2021/05/24 00:02:41;;;;;;;4.32;1.75;;;;;;;6.87;84.71;99789.81;4882519;29;20112;-83
2021/05/24 00:05:12;;;;;;;5.97;1.60;;;;;;;6.81;85.06;99785.72;4882659;29;20037;-83
2021/05/24 00:07:38;;;;;;;5.45;1.83;;;;;;;6.76;85.31;99776.41;4885286;29;20382;-82
2021/05/24 00:10:06;;;;;;;5.78;1.77;;;;;;;6.99;84.96;99822.25;4871438;29;20045;-82
2021/05/24 00:12:32;;;;;;;4.57;1.52;;;;;;;6.57;84.92;99754.59;4879274;29;20037;-83
2021/05/24 00:14:58;;;;;;;4.65;1.67;;;;;;;6.86;85.07;99812.34;4883203;29;20103;-82
2021/05/24 00:17:23;;;;;;;4.68;1.85;;;;;;;6.95;85.41;99833.66;4882688;29;20041;-83
2021/05/24 00:19:49;;;;;;;6.38;1.67;;;;;;;6.43;85.68;99759.44;4874115;29;20036;-83
2021/05/24 00:22:15;;;;;;;5.30;1.95;;;;;;;6.93;85.79;99840.66;4884183;29;20037;-83
2021/05/24 00:24:40;;;;;;;4.78;1.95;;;;;;;6.62;85.35;99777.78;4884666;29;20328;-83
2021/05/24 00:27:06;;;;;;;6.93;1.98;;;;;;;6.47;85.21;99757.59;4887219;29;20108;-83
2021/05/24 00:29:32;;;;;;;4.70;1.60;;;;;;;7.00;85.26;99832.56;4889073;29;20032;-83
2021/05/24 00:31:57;;;;;;;6.50;1.90;;;;;;;6.65;85.42;99772.50;4894175;29;20025;-83
2021/05/24 00:34:23;;;;;;;3.40;1.60;;;;;;;7.03;85.25;99819.50;4903930;29;20040;-83
2021/05/24 00:36:49;;;;;;;5.75;1.58;;;;;;;7.02;84.62;99820.41;4904822;29;20044;-83
2021/05/24 00:39:14;;;;;;;3.42;1.67;;;;;;;7.04;84.78;99826.38;4905570;29;20097;-82
2021/05/24 00:41:41;;;;;;;5.63;1.77;;;;;;;7.11;84.75;99824.38;4905752;29;20121;-83
2021/05/24 00:44:08;;;;;;;5.72;1.60;;;;;;;7.16;84.79;99822.47;4905750;29;20037;-83
2021/05/24 00:46:35;;;;;;;8.18;2.20;;;;;;;7.15;84.59;99825.13;4919612;29;20058;-83
2021/05/24 00:49:01;;;;;;;5.03;1.67;;;;;;;7.11;84.97;99829.56;4892229;29;20093;-82
2021/05/24 00:51:26;;;;;;;4.45;1.60;;;;;;;7.05;84.71;99817.69;4902187;29;20029;-84
2021/05/24 00:53:52;;;;;;;6.18;2.10;;;;;;;7.02;84.73;99817.81;4905474;29;20025;-82
2021/05/24 00:56:21;;;;;;;6.10;1.60;;;;;;;6.30;85.17;99722.75;4904917;29;20044;-82
2021/05/24 00:58:47;;;;;;;6.57;1.75;;;;;;;6.83;85.72;99815.03;4919880;29;20054;-83
2021/05/24 01:01:13;;;;;;;8.63;2.25;;;;;;;6.43;85.81;99756.84;4904412;29;20033;-82
2021/05/24 01:03:40;;;;;;;5.85;1.77;;;;;;;6.83;85.58;99811.59;4904339;29;20051;-83
2021/05/24 01:06:05;;;;;;;8.48;2.00;;;;;;;6.60;86.00;99791.69;4906144;29;20070;-83
2021/05/24 01:08:31;;;;;;;5.82;1.90;;;;;;;6.25;85.80;99741.06;4903629;29;20029;-84
2021/05/24 01:10:57;;;;;;;4.43;1.98;;;;;;;6.38;85.87;99754.44;4893762;29;20044;-83
2021/05/24 01:13:23;;;;;;;7.68;2.25;;;;;;;6.66;85.87;99801.84;4882111;29;20033;-83
2021/05/24 01:15:49;;;;;;;3.95;1.92;;;;;;;6.19;86.58;99730.91;4879060;29;20061;-84
2021/05/24 01:18:15;;;;;;;6.18;1.98;;;;;;;6.52;86.07;99790.22;4889751;29;20044;-83
2021/05/24 01:20:42;;;;;;;7.65;2.45;;;;;;;6.35;85.66;99770.09;4898672;29;20041;-83
2021/05/24 01:23:10;;;;;;;6.13;1.83;;;;;;;6.21;86.58;99736.03;4898410;29;20049;-83
2021/05/24 01:25:45;;;;;;;5.75;1.90;;;;;;;6.46;85.70;99777.50;4886510;29;20040;-84
2021/05/24 01:28:16;;;;;;;6.05;2.70;;;;;;;6.21;86.24;99743.81;4881108;29;20061;-83
2021/05/24 01:30:42;;;;;;;7.50;2.15;;;;;;;6.59;87.02;99796.03;4880753;29;20132;-84
2021/05/24 01:33:09;;;;;;;7.10;2.05;;;;;;;6.61;86.45;99786.44;4880302;29;20049;-83
2021/05/24 01:35:38;;;;;;;8.07;2.05;;;;;;;6.54;86.05;99779.78;4892581;29;20038;-84
2021/05/24 01:38:04;;;;;;;5.68;1.90;;;;;;;6.45;86.68;99760.25;4877318;29;20044;-86
2021/05/24 01:40:30;;;;;;;4.80;1.85;;;;;;;6.17;86.74;99719.75;4891378;29;20037;-83
2021/05/24 01:42:59;;;;;;;7.95;2.00;;;;;;;6.52;86.84;99786.81;4891745;29;20075;-83
2021/05/24 01:45:26;;;;;;;6.28;2.00;;;;;;;5.98;87.32;99688.47;4889697;29;20029;-84
2021/05/24 01:47:53;;;;;;;5.63;2.10;;;;;;;6.33;87.21;99760.69;4882605;29;20049;-84
2021/05/24 01:50:19;;;;;;;5.07;2.17;;;;;;;6.43;87.42;99776.75;4881562;29;20029;-84
2021/05/24 01:52:45;;;;;;;8.32;2.10;;;;;;;6.41;87.63;99774.22;4881680;29;20064;-84
2021/05/24 01:55:11;;;;;;;9.80;2.60;;;;;;;6.24;87.51;99751.50;4881606;29;20405;-84
2021/05/24 01:57:38;;;;;;;7.20;2.97;;;;;;;6.23;87.23;99767.94;4881546;29;20025;-83
2021/05/24 02:00:08;;;;;;;7.00;2.10;;;;;;;5.75;88.22;99681.50;4883073;29;20064;-81
2021/05/24 02:02:34;;;;;;;8.65;2.00;;;;;;;5.96;88.03;99705.78;4884858;29;20410;-83
2021/05/24 02:04:59;;;;;;;8.07;2.88;;;;;;;6.09;87.46;99730.41;4885714;29;20033;-82
2021/05/24 02:07:29;;;;;;;5.63;2.25;;;;;;;6.17;88.16;99750.84;4886130;29;20062;-82
2021/05/24 02:09:56;;;;;;;8.13;2.90;;;;;;;5.91;88.03;99715.47;4869913;29;20055;-83
2021/05/24 02:12:21;;;;;;;8.70;2.88;;;;;;;6.13;88.15;99758.78;4867970;29;20033;-84
2021/05/24 02:14:50;;;;;;;6.28;2.38;;;;;;;5.60;88.42;99688.03;4871565;29;20038;-83
2021/05/24 02:17:15;;;;;;;9.23;2.72;;;;;;;5.96;88.26;99757.59;4891865;29;20029;-82
2021/05/24 02:19:41;;;;;;;7.97;2.53;;;;;;;6.00;88.59;99766.16;4888375;29;20041;-84
2021/05/24 02:22:06;;;;;;;6.82;2.67;;;;;;;5.29;89.08;99653.66;4880142;29;20041;-84
2021/05/24 02:24:32;;;;;;;10.02;3.00;;;;;;;5.80;88.76;99740.88;4880501;29;20037;-84
2021/05/24 02:26:58;;;;;;;7.68;3.08;;;;;;;5.71;89.31;99745.50;4879674;29;20144;-84
2021/05/24 02:29:23;;;;;;;7.78;3.00;;;;;;;5.95;88.80;99768.03;4879807;29;20025;-84
2021/05/24 02:31:48;;;;;;;7.50;2.50;;;;;;;5.93;88.79;99768.06;4880185;29;20033;-84
2021/05/24 02:34:14;;;;;;;7.93;2.58;;;;;;;5.74;88.95;99739.34;4878285;29;20121;-84
2021/05/24 02:36:39;;;;;;;7.45;2.92;;;;;;;5.95;89.25;99773.19;4861819;29;20073;-84
2021/05/24 02:39:08;;;;;;;10.27;3.08;;;;;;;5.89;89.75;99758.72;4866844;29;20038;-84
2021/05/24 02:41:34;;;;;;;6.80;2.58;;;;;;;5.91;88.69;99762.09;4862035;29;20447;-84
2021/05/24 02:43:59;;;;;;;8.95;2.85;;;;;;;5.99;88.69;99773.06;4860576;29;20041;-84
2021/05/24 02:46:25;;;;;;;10.32;3.47;;;;;;;5.74;87.93;99739.34;4872221;29;20037;-84
2021/05/24 02:48:50;;;;;;;6.68;2.55;;;;;;;5.90;88.08;99770.75;4879694;29;20041;-84
2021/05/24 02:51:16;;;;;;;9.35;2.63;;;;;;;5.74;88.41;99760.91;4879443;29;20406;-84
2021/05/24 02:53:41;;;;;;;8.80;3.33;;;;;;;5.86;88.91;99780.38;4879367;29;20116;-84
2021/05/24 02:56:08;;;;;;;9.80;2.60;;;;;;;5.87;88.74;99765.66;4879389;29;20043;-84
2021/05/24 02:58:33;;;;;;;7.28;2.78;;;;;;;5.60;88.70;99717.38;4880128;29;20032;-84
2021/05/24 03:00:59;;;;;;;9.20;2.90;;;;;;;5.83;88.93;99758.91;4879353;29;20493;-84
2021/05/24 03:03:24;;;;;;;8.70;2.60;;;;;;;5.71;88.95;99749.81;4877530;29;20158;-84
2021/05/24 03:05:51;;;;;;;8.82;2.85;;;;;;;5.25;88.50;99670.19;4879005;29;20105;-84
2021/05/24 03:08:17;;;;;;;14.30;3.28;;;;;;;5.56;89.02;99730.47;4891156;29;20510;-84
2021/05/24 03:10:43;;;;;;;7.80;3.08;;;;;;;5.64;88.41;99723.28;4875994;29;20041;-84
2021/05/24 03:13:09;;;;;;;10.35;2.97;;;;;;;5.29;88.63;99661.41;4860764;29;20045;-84
2021/05/24 03:15:35;;;;;;;9.80;3.50;;;;;;;5.81;89.17;99750.34;4866765;29;20033;-84
2021/05/24 03:18:00;;;;;;;9.77;2.85;;;;;;;5.56;88.32;99705.41;4894054;29;20037;-84
2021/05/24 03:20:26;;;;;;;12.82;3.15;;;;;;;5.39;88.02;99672.31;4879781;29;20375;-83
2021/05/24 03:22:51;;;;;;;9.93;2.90;;;;;;;5.71;87.93;99723.91;4880066;29;20424;-83
2021/05/24 03:25:18;;;;;;;8.95;3.30;;;;;;;5.88;88.87;99744.06;4880164;29;20110;-83
2021/05/24 03:27:43;;;;;;;10.30;3.30;;;;;;;5.85;88.59;99747.59;4879974;29;20033;-84
2021/05/24 03:30:13;;;;;;;9.57;3.53;;;;;;;5.85;88.70;99757.97;4879548;29;20063;-83
2021/05/24 03:32:39;;;;;;;8.30;3.10;;;;;;;5.71;88.70;99744.63;4882891;29;20037;-84
2021/05/24 03:35:06;;;;;;;10.18;3.10;;;;;;;5.71;88.31;99734.28;4883450;29;20033;-84
2021/05/24 03:37:32;;;;;;;10.00;3.15;;;;;;;5.65;88.33;99714.63;4882717;29;20048;-83
2021/05/24 03:39:57;;;;;;;11.00;3.25;;;;;;;5.85;88.17;99750.19;4882113;29;20033;-84
2021/05/24 03:42:23;;;;;;;11.68;3.63;;;;;;;5.57;88.45;99717.44;4882679;29;20509;-84
2021/05/24 03:44:49;;;;;;;11.80;3.88;;;;;;;5.26;89.40;99683.97;4882534;29;20160;-83
2021/05/24 03:47:14;;;;;;;12.65;3.72;;;;;;;5.67;88.89;99753.41;4883011;29;20410;-84
2021/05/24 03:49:49;;;;;;;12.15;3.17;;;;;;;5.58;88.70;99750.22;4882744;29;20505;-83
2021/05/24 03:52:16;;;;;;;8.30;3.42;;;;;;;5.51;89.55;99755.66;4867988;29;20064;-84
2021/05/24 03:54:42;;;;;;;14.15;3.28;;;;;;;5.47;89.05;99754.91;4882563;29;20528;-83
2021/05/24 03:57:09;;;;;;;12.27;3.50;;;;;;;5.08;89.23;99691.44;4881774;29;20033;-83
2021/05/24 03:59:35;;;;;;;11.60;3.30;;;;;;;5.43;89.99;99746.41;4881250;29;20036;-83
2021/05/24 04:02:02;;;;;;;14.85;3.75;;;;;;;5.17;90.41;99698.03;4883315;29;20077;-83
2021/05/24 04:04:28;;;;;;;11.05;3.40;;;;;;;5.54;90.20;99748.63;4887495;29;20037;-83
2021/05/24 04:06:55;;;;;;;9.38;3.03;;;;;;;5.15;89.45;99681.75;4881703;29;20040;-83
2021/05/24 04:09:22;;;;;;;18.02;3.72;;;;;;;5.42;88.89;99715.34;4884542;29;20076;-83
2021/05/24 04:11:47;;;;;;;11.75;3.08;;;;;;;5.34;88.60;99702.69;4895636;29;20049;-83
2021/05/24 04:14:13;;;;;;;11.45;3.70;;;;;;;5.55;88.80;99727.00;4882137;29;20075;-83
2021/05/24 04:16:39;;;;;;;11.27;3.33;;;;;;;5.58;88.61;99752.81;4881273;29;20037;-83
2021/05/24 04:19:09;;;;;;;11.07;3.53;;;;;;;5.53;89.06;99712.41;4887034;29;20066;-83
2021/05/24 04:21:35;;;;;;;10.07;3.20;;;;;;;5.83;88.62;99751.97;4882221;29;20406;-83
2021/05/24 04:24:00;;;;;;;11.65;2.80;;;;;;;5.96;88.58;99748.97;4881297;29;20041;-84
2021/05/24 04:26:26;;;;;;;13.05;2.80;;;;;;;5.66;88.24;99671.44;4881993;29;20048;-83
2021/05/24 04:28:51;;;;;;;11.10;3.05;;;;;;;5.87;88.22;99678.47;4882225;29;20088;-83
2021/05/24 04:31:17;;;;;;;13.55;3.28;;;;;;;6.41;88.12;99746.53;4881934;29;20037;-83
2021/05/24 04:33:42;;;;;;;13.57;2.95;;;;;;;6.55;87.59;99740.88;4879332;29;20044;-83
2021/05/24 04:36:08;;;;;;;14.57;2.60;;;;;;;6.72;87.23;99732.44;4895233;29;20394;-83
2021/05/24 04:38:33;;;;;;;14.40;3.85;;;;;;;6.95;86.29;99728.13;4908371;29;20029;-82
2021/05/24 04:41:00;;;;;;;10.55;3.47;;;;;;;7.21;85.66;99734.91;4905040;29;20047;-82
2021/05/24 04:43:31;;;;;;;12.75;3.05;;;;;;;7.51;84.44;99726.75;4902729;29;20088;-82
2021/05/24 04:45:57;;;;;;;14.50;3.08;;;;;;;7.81;84.24;99726.41;4894206;29;20418;-83
2021/05/24 04:48:23;;;;;;;13.82;3.78;;;;;;;7.98;82.55;99704.91;4891740;29;20045;-82
2021/05/24 04:50:50;;;;;;;13.63;3.22;;;;;;;8.34;82.25;99724.13;4885830;29;20041;-83
2021/05/24 04:53:17;;;;;;;12.93;3.75;;;;;;;8.37;82.21;99723.97;4883025;29;20053;-82
2021/05/24 04:55:44;;;;;;;12.73;3.15;;;;;;;8.09;82.01;99707.03;4884335;29;20128;-83
2021/05/24 04:58:09;;;;;;;12.23;2.83;;;;;;;7.92;82.69;99686.09;4883774;29;20554;-83
2021/05/24 05:00:36;;;;;;;15.52;3.53;;;;;;;8.04;83.40;99693.38;4880572;29;20034;-84
2021/05/24 05:03:03;;;;;;;15.77;3.25;;;;;;;8.22;83.29;99722.91;4875276;29;20053;-84
2021/05/24 05:05:28;;;;;;;15.48;3.38;;;;;;;8.13;82.57;99729.38;4886649;29;20380;-83
2021/05/24 05:07:55;;;;;;;14.50;3.70;;;;;;;7.89;82.90;99707.88;4879663;29;20097;-84
2021/05/24 05:10:23;;;;;;;14.35;3.20;;;;;;;8.07;83.05;99729.63;4899599;29;20067;-84
2021/05/24 05:12:49;;;;;;;13.77;2.85;;;;;;;7.90;82.93;99698.31;4890626;29;20562;-84
2021/05/24 05:15:14;;;;;;;14.88;3.58;;;;;;;8.11;83.29;99728.56;4888689;29;20067;-84
2021/05/24 05:17:41;;;;;;;14.00;3.45;;;;;;;8.06;83.48;99729.72;4887372;29;20037;-83
2021/05/24 05:20:07;;;;;;;14.93;3.85;;;;;;;8.10;83.97;99728.66;4886671;29;20099;-83
2021/05/24 05:22:34;;;;;;;16.38;4.00;;;;;;;8.08;84.09;99720.94;4908981;29;20048;-84
2021/05/24 05:25:01;;;;;;;23.35;4.10;;;;;;;7.68;83.80;99663.72;4884432;29;20075;-85
2021/05/24 05:27:26;;;;;;;13.02;3.53;;;;;;;7.90;83.46;99713.91;4883329;29;20029;-84
2021/05/24 05:29:52;;;;;;;14.30;3.38;;;;;;;7.76;83.75;99694.56;4882873;29;20041;-84
2021/05/24 05:32:17;;;;;;;15.75;3.25;;;;;;;7.58;83.88;99654.66;4882952;29;20064;-84
2021/05/24 05:34:43;;;;;;;14.40;3.58;;;;;;;8.03;83.48;99717.66;4881021;29;20040;-83
2021/05/24 05:37:08;;;;;;;13.00;3.22;;;;;;;8.07;83.52;99715.78;4879536;29;20368;-83
2021/05/24 05:39:34;;;;;;;10.70;2.95;;;;;;;7.75;83.47;99634.88;4880293;29;20526;-84
2021/05/24 05:41:59;;;;;;;13.30;3.40;;;;;;;8.41;82.78;99703.88;4866472;29;20041;-83
2021/05/24 05:44:25;;;;;;;13.30;3.45;;;;;;;8.32;82.44;99680.00;4873345;29;20048;-83
2021/05/24 05:46:51;;;;;;;18.25;3.47;;;;;;;8.64;82.26;99708.06;4881070;29;20037;-83
2021/05/24 05:49:17;;;;;;;15.15;2.83;;;;;;;8.76;81.90;99701.47;4880266;29;20037;-82
2021/05/24 05:51:42;;;;;;;16.38;4.13;;;;;;;8.77;81.28;99677.13;4882828;29;20044;-82
2021/05/24 05:54:07;;;;;;;18.42;3.30;;;;;;;8.66;81.12;99654.22;4871597;29;20045;-82
2021/05/24 05:56:33;;;;;;;15.60;3.40;;;;;;;8.89;80.97;99709.56;4881111;29;20111;-82
2021/05/24 05:58:58;;;;;;;15.35;3.20;;;;;;;8.96;80.76;99708.34;4880673;29;20509;-82
2021/05/24 06:01:24;;;;;;;12.70;3.25;;;;;;;8.90;80.53;99690.38;4871832;29;20041;-82
2021/05/24 06:03:50;;;;;;;14.80;3.45;;;;;;;8.99;80.60;99687.38;4877069;29;20080;-83
2021/05/24 06:06:15;;;;;;;16.45;3.63;;;;;;;9.00;81.00;99665.63;4880649;29;20036;-83
2021/05/24 06:08:41;;;;;;;13.85;3.47;;;;;;;8.93;80.75;99657.25;4880487;29;20375;-84
2021/05/24 06:11:07;;;;;;;14.35;3.42;;;;;;;9.12;79.60;99667.63;4912348;29;20045;-83
2021/05/24 06:13:33;;;;;;;17.95;3.35;;;;;;;9.43;79.11;99702.56;4879992;29;20033;-83
2021/05/24 06:15:58;;;;;;;13.70;3.17;;;;;;;9.45;78.42;99700.75;4880129;29;20376;-83
2021/05/24 06:18:24;;;;;;;11.60;3.20;;;;;;;8.95;78.68;99633.78;4879325;29;20781;-84
2021/05/24 06:20:50;;;;;;;13.57;3.35;;;;;;;8.99;79.31;99668.31;4865910;29;20044;-83
2021/05/24 06:23:16;;;;;;;13.77;3.42;;;;;;;8.93;79.66;99662.47;4882365;29;20033;-82
2021/05/24 06:25:44;;;;;;;14.40;2.92;;;;;;;8.88;80.01;99667.06;4868400;29;20077;-82
2021/05/24 06:28:12;;;;;;;14.05;3.10;;;;;;;8.87;79.84;99673.16;4882912;29;20041;-82
2021/05/24 06:30:37;;;;;;;14.23;3.30;;;;;;;9.24;79.49;99709.59;4875255;29;20119;-82
2021/05/24 06:33:03;;;;;;;15.52;3.55;;;;;;;9.08;79.23;99655.69;4882349;29;20079;-84
2021/05/24 06:35:30;;;;;;;16.70;3.80;;;;;;;9.40;78.98;99717.53;4883598;29;20085;-84
2021/05/24 06:37:56;;;;;;;9.73;2.92;;;;;;;9.35;79.37;99709.94;4887278;29;20044;-83
2021/05/24 06:40:21;;;;;;;13.20;3.60;;;;;;;9.26;79.87;99703.44;4880514;29;20389;-84
2021/05/24 06:42:47;;;;;;;11.18;3.47;;;;;;;8.83;80.05;99650.81;4880699;29;20044;-85
2021/05/24 06:45:15;;;;;;;12.77;2.85;;;;;;;8.95;80.44;99665.00;4886377;29;20039;-81
2021/05/24 06:47:41;;;;;;;14.88;3.45;;;;;;;9.29;80.36;99711.06;4880665;29;20101;-81
2021/05/24 06:50:07;;;;;;;14.07;3.58;;;;;;;9.08;80.37;99681.72;4879471;29;20041;-82
2021/05/24 06:52:33;;;;;;;13.57;3.53;;;;;;;9.16;80.01;99683.94;4880203;29;20120;-81
2021/05/24 06:54:59;;;;;;;16.42;3.15;;;;;;;9.18;81.02;99679.53;4862489;29;20049;-81
2021/05/24 06:57:25;;;;;;;16.67;3.58;;;;;;;9.00;79.40;99664.78;4866357;29;20386;-81
2021/05/24 06:59:51;;;;;;;13.75;3.25;;;;;;;8.59;79.88;99629.41;4876675;29;20181;-81
2021/05/24 07:02:17;;;;;;;15.05;2.95;;;;;;;8.84;80.80;99683.75;4879267;29;20127;-83
2021/05/24 07:04:44;;;;;;;16.48;3.53;;;;;;;9.14;81.14;99711.81;4881918;29;20045;-85
2021/05/24 07:07:09;;;;;;;17.13;3.80;;;;;;;9.35;81.20;99717.75;4887044;29;20037;-81
2021/05/24 07:09:35;;;;;;;14.10;3.63;;;;;;;9.13;80.36;99673.69;4889160;29;20041;-89
2021/05/24 07:12:01;;;;;;;18.23;4.30;;;;;;;8.75;80.37;99626.91;4900987;29;20053;-89
2021/05/24 07:14:27;;;;;;;14.80;3.75;;;;;;;8.75;80.57;99647.72;4904870;29;20120;-88
2021/05/24 07:16:54;;;;;;;11.95;3.08;;;;;;;9.10;82.03;99713.72;4889683;29;20053;-88
2021/05/24 07:19:23;;;;;;;9.32;2.78;;;;;;;9.47;79.64;99733.69;4891095;29;20071;-88
2021/05/24 07:21:53;;;;;;;12.02;2.13;;;;;;;9.64;77.09;99732.88;4906315;23;20053;-89
2021/05/24 07:24:19;;;;;;;10.70;2.97;;;;;;;9.64;77.48;99735.47;4901355;29;20029;-86
2021/05/24 07:26:47;;;;;;;10.27;2.42;;;;;;;9.10;77.92;99671.22;4898935;29;20163;-83
2021/05/24 07:29:13;;;;;;;7.15;1.73;;;;;;;9.25;77.79;99699.13;4899138;29;20549;-84
2021/05/24 07:31:38;;;;;;;9.00;1.85;;;;;;;9.30;77.05;99745.75;4901511;29;20064;-88
2021/05/24 07:34:05;;;;;;;8.23;1.83;;;;;;;9.18;77.64;99746.34;4901251;29;20037;-88
2021/05/24 07:36:32;;;;;;;9.23;2.15;;;;;;;8.68;78.47;99647.19;4905388;29;20039;-89
2021/05/24 07:39:05;;;;;;;6.25;1.52;;;;;;;8.77;76.71;99638.09;4905959;29;20037;-89
2021/05/24 07:41:35;;;;;;;4.88;1.30;;;;;;;9.68;76.40;99740.47;4906776;29;20055;-89
2021/05/24 07:44:00;;;;;;;5.63;1.73;;;;;;;9.66;75.09;99668.50;4906131;29;20036;-89
2021/05/24 07:46:26;;;;;;;6.53;1.35;;;;;;;9.49;74.35;99661.53;4907104;29;20481;-90
2021/05/24 07:48:52;;;;;;;5.85;1.50;;;;;;;9.98;75.13;99752.84;4906892;29;20044;-88
2021/05/24 07:51:18;;;;;;;5.60;1.55;;;;;;;9.28;72.13;99682.50;4906437;29;20473;-89
2021/05/24 07:53:44;;;;;;;3.47;0.82;;;;;;;9.82;71.60;99765.00;4899930;29;20493;-90
2021/05/24 07:56:09;;;;;;;3.63;0.88;;;;;;;10.00;69.76;99758.00;4901825;29;20075;-90
2021/05/24 07:58:35;;;;;;;2.78;0.93;;;;;;;9.59;67.63;99707.91;4917210;29;20099;-89
2021/05/24 08:01:01;;;;;;;5.05;0.80;;;;;;;8.95;69.13;99611.19;4915864;29;20061;-89
2021/05/24 08:03:26;;;;;;;4.65;1.02;;;;;;;10.08;68.72;99776.69;4900366;29;20060;-90
2021/05/24 08:05:51;;;;;;;2.72;0.60;;;;;;;9.76;67.69;99695.75;4901170;29;20040;-90
2021/05/24 08:08:20;;;;;;;1.77;0.57;;;;;;;10.31;68.58;99766.84;4903972;29;20040;-90
2021/05/24 08:10:47;;;;;;;2.10;0.63;;;;;;;10.32;68.52;99735.47;4908254;29;20442;-89
2021/05/24 08:13:13;;;;;;;1.70;0.80;;;;;;;9.77;68.54;99627.09;4911276;29;20120;-87
2021/05/24 08:15:39;;;;;;;3.13;0.90;;;;;;;10.50;67.25;99756.34;4906589;29;20078;-88
2021/05/24 08:18:09;;;;;;;2.15;0.82;;;;;;;9.94;67.35;99618.38;4907069;29;20383;-88
2021/05/24 08:20:36;;;;;;;4.03;1.73;;;;;;;10.16;67.24;99665.00;4908365;29;20044;-89
2021/05/24 08:23:05;;;;;;;2.30;0.90;;;;;;;10.66;67.12;99754.56;4906703;29;20140;-90
2021/05/24 08:25:31;;;;;;;1.02;0.63;;;;;;;9.92;68.05;99661.91;4909420;29;20040;-88
2021/05/24 08:27:57;;;;;;;4.38;0.88;;;;;;;9.97;69.02;99646.03;4903411;29;20061;-89
2021/05/24 08:30:23;;;;;;;3.05;0.80;;;;;;;10.20;68.07;99684.78;4903477;29;20037;-90
2021/05/24 08:32:49;;;;;;;3.20;0.88;;;;;;;10.05;69.63;99644.72;4902131;29;20048;-88
2021/05/24 08:35:15;;;;;;;5.93;1.65;;;;;;;10.60;69.88;99683.63;4903499;29;20040;-88
2021/05/24 08:37:40;;;;;;;6.10;0.93;;;;;;;10.56;68.15;99686.38;4902389;29;20507;-89
2021/05/24 08:40:08;;;;;;;4.07;0.93;;;;;;;10.77;66.57;99716.63;4903160;29;20267;-87
2021/05/24 08:42:41;;;;;;;5.40;1.10;;;;;;;10.11;66.35;99594.00;4904279;29;20048;-88
2021/05/24 08:45:08;;;;;;;2.55;0.90;;;;;;;10.93;65.78;99653.94;4900957;29;20076;-87
2021/05/24 08:47:33;;;;;;;4.90;1.30;;;;;;;11.44;63.12;99677.19;4887458;29;20040;-88
2021/05/24 08:49:59;;;;;;;6.32;1.30;;;;;;;11.69;61.29;99731.47;4906973;29;20043;-88
2021/05/24 08:52:33;;;;;;;5.47;1.20;;;;;;;11.46;61.55;99672.69;4910999;29;20036;-87
2021/05/24 08:55:00;;;;;;;7.18;1.40;;;;;;;11.64;60.95;99684.66;4912015;29;20092;-89
2021/05/24 08:57:26;;;;;;;6.63;1.58;;;;;;;11.36;59.94;99656.69;4925676;29;20043;-88
2021/05/24 08:59:53;;;;;;;7.43;1.25;;;;;;;11.56;60.36;99707.81;4913709;29;20045;-89
2021/05/24 09:02:20;;;;;;;7.72;1.50;;;;;;;12.04;61.38;99693.75;4918623;29;20055;-86
2021/05/24 09:04:50;;;;;;;7.78;1.50;;;;;;;12.20;59.70;99733.72;4923130;29;20111;-87
2021/05/24 09:07:17;;;;;;;8.05;1.17;;;;;;;12.21;60.66;99737.19;4917701;29;20028;-88
2021/05/24 09:10:01;;;;;;;8.02;1.92;;;;;;;11.54;60.97;99686.97;4918581;29;20073;-89
2021/05/24 09:12:33;;;;;;;8.00;1.38;;;;;;;12.23;59.66;99735.31;4916868;29;20068;-87
2021/05/24 09:15:11;;;;;;;8.30;1.70;;;;;;;12.60;59.67;99712.13;4916194;29;20118;-88
2021/05/24 09:17:58;;;;;;;5.90;1.35;;;;;;;13.16;59.48;99733.03;4915805;29;20040;-87
2021/05/24 09:20:33;;;;;;;7.43;1.40;;;;;;;13.09;55.74;99736.97;4914644;29;20044;-87
2021/05/24 09:23:30;;;;;;;6.60;1.55;;;;;;;12.76;56.16;99732.94;4912437;29;20053;-89
2021/05/24 09:26:34;;;;;;;7.60;1.50;;;;;;;13.09;56.09;99736.97;4918511;23;20061;-88
2021/05/24 09:29:06;;;;;;;6.18;1.20;;;;;;;12.21;54.13;99641.22;4878410;29;20057;-89
2021/05/24 09:31:38;;;;;;;5.10;1.20;;;;;;;12.46;54.25;99747.84;4876340;29;20104;-87
2021/05/24 09:34:07;;;;;;;4.68;1.20;;;;;;;12.10;55.57;99707.28;4877831;29;20056;-86
2021/05/24 09:36:34;;;;;;;4.95;1.20;;;;;;;12.41;56.56;99741.19;4876530;29;20102;-88
2021/05/24 09:39:06;;;;;;;8.52;1.73;;;;;;;11.51;56.72;99593.09;4855390;29;20046;-89
2021/05/24 09:41:46;;;;;;;6.43;1.33;;;;;;;12.10;58.28;99665.41;4868969;29;20037;-88
2021/05/24 09:44:26;;;;;;;6.97;1.35;;;;;;;12.77;56.60;99735.47;4858639;29;20060;-88
2021/05/24 09:46:53;;;;;;;5.53;1.58;;;;;;;12.61;57.27;99737.38;4854806;29;20050;-88
2021/05/24 09:49:26;;;;;;;7.82;1.48;;;;;;;12.35;56.57;99697.09;4882800;29;20050;-89
2021/05/24 09:51:52;;;;;;;5.13;1.30;;;;;;;12.84;56.06;99737.69;4881455;29;20052;-89
2021/05/24 09:54:23;;;;;;;5.75;1.23;;;;;;;13.15;56.10;99749.69;4863468;29;20061;-88
2021/05/24 09:56:50;;;;;;;4.43;1.08;;;;;;;13.34;54.53;99730.16;4882714;29;20048;-88
2021/05/24 09:59:23;;;;;;;9.23;1.50;;;;;;;13.06;54.24;99740.63;4865060;29;20132;-88
2021/05/24 10:01:55;;;;;;;6.05;1.10;;;;;;;13.00;55.55;99740.16;4861224;29;20031;-88
2021/05/24 10:04:30;;;;;;;5.63;1.52;;;;;;;13.44;54.31;99708.50;4865445;29;20056;-88
2021/05/24 10:07:06;;;;;;;5.80;1.27;;;;;;;14.11;52.94;99738.19;4869253;29;20076;-89
2021/05/24 10:09:33;;;;;;;3.00;1.27;;;;;;;13.75;54.02;99692.50;4853663;29;20080;-88
2021/05/24 10:12:02;;;;;;;5.65;1.60;;;;;;;13.81;52.94;99743.72;4852984;29;20038;-89
2021/05/24 10:14:31;;;;;;;7.55;1.55;;;;;;;12.94;55.76;99746.66;4862137;29;20033;-88
2021/05/24 10:17:02;;;;;;;6.18;1.50;;;;;;;12.67;57.58;99747.47;4870441;29;20070;-88
2021/05/24 10:19:32;;;;;;;7.65;1.70;;;;;;;12.21;58.14;99719.72;4892648;23;20044;-90
2021/05/24 10:22:00;;;;;;;6.10;2.05;;;;;;;12.36;57.97;99754.56;4889848;29;20041;-88
2021/05/24 10:24:27;;;;;;;6.18;1.25;;;;;;;11.40;56.46;99592.03;4878081;29;20109;-89
2021/05/24 10:27:02;;;;;;;6.60;1.98;;;;;;;12.35;56.45;99749.44;4877183;29;20033;-88
2021/05/24 10:29:29;;;;;;;;;;;;;;;12.35;55.60;99750.25;4899929;23;20135;-88
2021/05/24 10:31:54;;;;;;;5.47;1.10;;;;;;;12.11;55.15;99668.91;4894754;29;19920;-89
2021/05/24 10:34:24;;;;;;;6.38;1.45;;;;;;;12.88;54.51;99679.78;4889768;29;20045;-88
2021/05/24 10:37:14;;;;;;;8.18;1.75;;;;;;;13.41;53.41;99698.22;4891073;29;20455;-89
2021/05/24 10:39:47;;;;;;;4.28;1.30;;;;;;;13.81;53.50;99671.09;4891854;29;20063;-89
2021/05/24 10:42:14;;;;;;;3.65;1.58;;;;;;;13.09;52.67;99601.56;4889031;29;20123;-89
2021/05/24 10:44:47;;;;;;;3.38;1.17;;;;;;;13.70;50.11;99736.56;4891412;29;20044;-87
2021/05/24 10:47:25;;;;;;;6.65;1.15;;;;;;;12.82;53.16;99720.28;4891430;29;20069;-88
2021/05/24 10:50:05;;;;;;;5.53;1.10;;;;;;;11.60;55.02;99603.94;4891510;29;20100;-89
2021/05/24 10:52:53;;;;;;;4.20;1.10;;;;;;;12.30;54.47;99753.19;4891878;29;20442;-89
2021/05/24 10:55:28;;;;;;;3.97;0.90;;;;;;;12.25;54.72;99763.06;4872537;29;20045;-89
2021/05/24 10:58:03;;;;;;;5.43;0.93;;;;;;;12.39;54.93;99758.75;4877900;29;20025;-89
2021/05/24 11:00:59;;;;;;;6.68;1.30;;;;;;;11.81;55.71;99630.53;4893178;29;20088;-87
2021/05/24 11:03:26;;;;;;;5.85;1.40;;;;;;;11.72;57.59;99629.34;4881300;29;20029;-86
2021/05/24 11:06:15;;;;;;;4.40;1.08;;;;;;;12.45;58.36;99768.84;4890889;29;20108;-90
2021/05/24 11:08:50;;;;;;;5.00;1.33;;;;;;;12.29;56.69;99775.03;4890619;29;20167;-89
2021/05/24 11:11:26;;;;;;;6.05;1.40;;;;;;;12.27;56.57;99783.91;4885815;29;20076;-89
2021/05/24 11:14:01;;;;;;;4.57;1.08;;;;;;;12.14;55.61;99757.63;4878626;29;20041;-89
2021/05/24 11:16:29;;;;;;;5.20;1.30;;;;;;;11.95;56.35;99668.94;4865353;29;20034;-85
2021/05/24 11:19:15;;;;;;;7.38;1.20;;;;;;;12.82;56.09;99779.69;4866428;29;20041;-86
2021/05/24 11:21:51;;;;;;;6.22;1.40;;;;;;;12.32;54.54;99734.75;4887142;29;20048;-89
2021/05/24 11:27:07;;;;;;;5.65;1.40;;;;;;;12.62;53.81;99784.38;4932701;23;20067;-88
2021/05/24 11:29:36;;;;;;;3.97;0.90;;;;;;;12.51;54.19;99776.34;4925821;29;20059;-89
2021/05/24 11:32:27;;;;;;;5.07;1.90;;;;;;;12.13;52.44;99672.22;4926614;29;20291;-88
2021/05/24 11:34:56;;;;;;;5.93;1.80;;;;;;;12.72;53.43;99740.16;4928648;29;20032;-88
2021/05/24 11:38:10;;;;;;;5.57;1.40;;;;;;;13.32;53.16;99787.91;4924930;29;20401;-87
2021/05/24 11:40:36;;;;;;;5.70;1.35;;;;;;;12.98;53.05;99737.66;4904831;29;20084;-90
2021/05/24 11:43:11;;;;;;;5.53;1.30;;;;;;;13.39;52.82;99789.22;4911013;29;20048;-89